createdAt,value
2022-12-10T00:01:43.730Z,0.74
2022-12-10T00:04:12.224Z,0.80
2022-12-10T00:06:40.677Z,0.78
2022-12-10T00:09:12.842Z,0.76
2022-12-10T00:11:41.264Z,0.74
2022-12-10T00:14:09.024Z,0.79
2022-12-10T00:16:38.501Z,0.66
2022-12-10T00:19:07.737Z,0.76
2022-12-10T00:21:36.918Z,0.81
2022-12-10T00:24:06.027Z,0.79
2022-12-10T00:26:36.184Z,0.76
2022-12-10T00:29:05.439Z,0.82
2022-12-10T00:31:35.947Z,0.83
2022-12-10T00:34:06.246Z,0.82
2022-12-10T00:36:38.124Z,0.71
2022-12-10T00:39:06.218Z,0.76
2022-12-10T00:41:33.706Z,0.83
2022-12-10T00:44:01.278Z,0.74
2022-12-10T00:46:29.208Z,0.79
2022-12-10T00:48:56.704Z,0.73
2022-12-10T00:51:26.645Z,0.68
2022-12-10T00:53:56.122Z,0.74
2022-12-10T00:56:26.722Z,0.75
2022-12-10T00:58:54.348Z,0.81
2022-12-10T01:01:25.462Z,0.87
2022-12-10T01:03:55.078Z,0.87
2022-12-10T01:06:23.978Z,0.88
2022-12-10T01:08:53.512Z,0.90
2022-12-10T01:11:26.119Z,0.94
2022-12-10T01:13:54.263Z,0.96
2022-12-10T01:16:28.948Z,0.90
2022-12-10T01:18:58.343Z,0.81
2022-12-10T01:21:32.012Z,0.91
2022-12-10T01:24:00.724Z,0.94
2022-12-10T01:26:36.936Z,0.92
2022-12-10T01:29:06.306Z,0.92
2022-12-10T01:31:40.348Z,0.93
2022-12-10T01:34:14.959Z,0.94
2022-12-10T01:36:44.998Z,0.78
2022-12-10T01:39:16.455Z,0.91
2022-12-10T01:41:47.127Z,0.87
2022-12-10T01:44:19.967Z,0.90
2022-12-10T01:46:50.691Z,0.95
2022-12-10T01:49:21.455Z,0.96
2022-12-10T01:51:53.897Z,0.90
2022-12-10T01:54:33.544Z,0.91
2022-12-10T01:57:05.648Z,0.92
2022-12-10T01:59:36.158Z,0.83
2022-12-10T02:02:13.279Z,0.92
2022-12-10T02:04:49.287Z,0.87
2022-12-10T02:07:28.307Z,0.87
2022-12-10T02:10:04.750Z,0.92
2022-12-10T02:12:40.664Z,0.85
2022-12-10T02:15:18.485Z,0.84
2022-12-10T02:17:53.997Z,0.87
2022-12-10T02:20:32.085Z,0.83
2022-12-10T02:23:10.965Z,0.94
2022-12-10T02:25:54.258Z,0.92
2022-12-10T02:28:46.256Z,0.93
2022-12-10T02:31:19.846Z,0.91
2022-12-10T02:33:52.757Z,0.93
2022-12-10T02:36:23.092Z,0.92
2022-12-10T02:38:54.015Z,0.88
2022-12-10T02:41:31.496Z,0.81
2022-12-10T02:44:03.957Z,0.87
2022-12-10T02:46:33.962Z,0.89
2022-12-10T02:49:05.167Z,0.88
2022-12-10T02:51:34.327Z,0.91
2022-12-10T02:54:42.446Z,0.92
2022-12-10T02:57:31.207Z,0.77
2022-12-10T03:00:08.036Z,0.91
2022-12-10T03:03:03.753Z,0.88
2022-12-10T03:05:42.073Z,0.92
2022-12-10T03:08:15.791Z,0.90
2022-12-10T03:10:46.820Z,0.84
2022-12-10T03:13:18.266Z,0.78
2022-12-10T03:15:47.195Z,0.83
2022-12-10T03:18:18.415Z,0.79
2022-12-10T03:20:48.179Z,0.95
2022-12-10T03:23:18.340Z,0.87
2022-12-10T03:25:48.039Z,0.80
2022-12-10T03:28:17.052Z,0.82
2022-12-10T03:30:54.090Z,0.86
2022-12-10T03:33:21.674Z,0.88
2022-12-10T03:35:51.217Z,0.85
2022-12-10T03:38:20.116Z,0.89
2022-12-10T03:40:47.560Z,0.84
2022-12-10T03:43:15.254Z,0.91
2022-12-10T03:45:43.545Z,0.90
2022-12-10T03:48:10.950Z,0.83
2022-12-10T03:50:38.388Z,0.85
2022-12-10T03:53:05.848Z,0.88
2022-12-10T03:55:34.130Z,0.87
2022-12-10T03:58:01.392Z,0.72
2022-12-10T04:00:34.615Z,0.83
2022-12-10T04:03:01.731Z,0.80
2022-12-10T04:05:29.179Z,0.78
2022-12-10T04:07:56.651Z,0.92
2022-12-10T04:10:24.105Z,0.83
2022-12-10T04:13:10.958Z,0.79
2022-12-10T04:16:03.655Z,0.90
2022-12-10T04:18:31.038Z,0.96
2022-12-10T04:21:22.728Z,0.95
2022-12-10T04:24:08.735Z,0.92
2022-12-10T04:26:54.608Z,0.89
2022-12-10T04:29:28.612Z,0.93
2022-12-10T04:31:56.424Z,0.76
2022-12-10T04:34:24.785Z,0.82
2022-12-10T04:36:52.669Z,0.82
2022-12-10T04:39:19.999Z,0.80
2022-12-10T04:41:49.215Z,0.72
2022-12-10T04:44:17.696Z,0.85
2022-12-10T04:46:45.652Z,0.87
2022-12-10T04:49:13.998Z,0.81
2022-12-10T04:51:42.084Z,0.82
2022-12-10T04:54:15.547Z,0.76
2022-12-10T04:56:44.779Z,0.77
2022-12-10T04:59:12.158Z,0.94
2022-12-10T05:01:39.624Z,0.87
2022-12-10T05:04:09.163Z,0.89
2022-12-10T05:06:36.938Z,0.89
2022-12-10T05:09:05.777Z,0.81
2022-12-10T05:11:34.076Z,0.79
2022-12-10T05:14:03.325Z,0.89
2022-12-10T05:16:33.654Z,0.84
2022-12-10T05:19:01.315Z,0.77
2022-12-10T05:21:51.189Z,0.82
2022-12-10T05:24:19.306Z,0.76
2022-12-10T05:26:46.734Z,0.78
2022-12-10T05:29:14.862Z,0.81
2022-12-10T05:31:41.926Z,0.89
2022-12-10T05:34:11.917Z,0.71
2022-12-10T05:36:40.126Z,0.74
2022-12-10T05:39:11.324Z,0.93
2022-12-10T05:41:40.272Z,0.70
2022-12-10T05:44:14.726Z,0.86
2022-12-10T05:46:41.912Z,0.88
2022-12-10T05:49:09.395Z,0.69
2022-12-10T05:51:43.833Z,0.81
2022-12-10T05:54:11.266Z,0.74
2022-12-10T05:56:38.770Z,0.76
2022-12-10T05:59:10.034Z,0.87
2022-12-10T06:01:42.134Z,0.91
2022-12-10T06:04:09.138Z,0.80
2022-12-10T06:06:39.991Z,0.92
2022-12-10T06:09:12.124Z,0.82
2022-12-10T06:11:39.147Z,0.83
2022-12-10T06:14:06.781Z,0.65
2022-12-10T06:16:34.161Z,0.75
2022-12-10T06:19:01.691Z,0.82
2022-12-10T06:21:29.041Z,0.84
2022-12-10T06:23:56.477Z,0.79
2022-12-10T06:26:26.888Z,0.73
2022-12-10T06:28:54.934Z,0.70
2022-12-10T06:31:22.924Z,0.74
2022-12-10T06:33:50.824Z,0.76
2022-12-10T06:36:19.018Z,0.71
2022-12-10T06:38:47.034Z,0.66
2022-12-10T06:41:16.818Z,0.65
2022-12-10T06:43:43.947Z,0.70
2022-12-10T06:46:14.575Z,0.74
2022-12-10T06:48:42.251Z,0.83
2022-12-10T06:51:11.519Z,0.71
2022-12-10T06:53:40.758Z,0.79
2022-12-10T06:56:12.188Z,0.67
2022-12-10T06:58:41.746Z,0.76
2022-12-10T07:01:15.397Z,0.84
2022-12-10T07:03:42.976Z,0.92
2022-12-10T07:06:12.510Z,0.88
2022-12-10T07:08:39.607Z,0.95
2022-12-10T07:11:08.930Z,0.98
2022-12-10T07:13:36.416Z,0.93
2022-12-10T07:16:16.845Z,0.90
2022-12-10T07:18:50.237Z,0.83
2022-12-10T07:21:25.298Z,0.85
2022-12-10T07:23:55.047Z,0.89
2022-12-10T07:26:23.087Z,0.90
2022-12-10T07:28:53.599Z,1.07
2022-12-10T07:31:22.503Z,1.03
2022-12-10T07:33:52.152Z,0.95
2022-12-10T07:36:20.874Z,0.99
2022-12-10T07:38:47.884Z,0.90
2022-12-10T07:41:16.262Z,0.93
2022-12-10T07:43:45.796Z,0.91
2022-12-10T07:46:17.460Z,0.80
2022-12-10T07:48:46.498Z,0.78
2022-12-10T07:51:15.063Z,0.81
2022-12-10T07:53:43.402Z,0.80
2022-12-10T07:56:13.035Z,0.71
2022-12-10T07:58:45.595Z,0.66
2022-12-10T08:01:18.353Z,0.83
2022-12-10T08:03:45.999Z,0.84
2022-12-10T08:06:18.495Z,0.87
2022-12-10T08:08:46.587Z,0.78
2022-12-10T08:11:15.072Z,0.81
2022-12-10T08:13:42.574Z,0.84
2022-12-10T08:16:17.532Z,0.85
2022-12-10T08:18:46.704Z,0.87
2022-12-10T08:21:20.424Z,0.90
2022-12-10T08:23:49.574Z,0.76
2022-12-10T08:26:19.315Z,0.76
2022-12-10T08:28:54.118Z,0.85
2022-12-10T08:31:23.241Z,0.76
2022-12-10T08:33:51.647Z,0.82
2022-12-10T08:36:20.007Z,0.82
2022-12-10T08:38:47.993Z,0.82
2022-12-10T08:41:19.415Z,0.74
2022-12-10T08:43:48.520Z,0.81
2022-12-10T08:46:16.990Z,0.82
2022-12-10T08:48:46.623Z,0.83
2022-12-10T08:51:17.269Z,0.86
2022-12-10T08:53:45.423Z,0.90
2022-12-10T08:56:13.828Z,0.83
2022-12-10T08:58:43.060Z,0.84
2022-12-10T09:01:13.256Z,0.81
2022-12-10T09:03:40.605Z,0.86
2022-12-10T09:06:14.782Z,0.86
2022-12-10T09:08:48.657Z,0.96
2022-12-10T09:11:23.576Z,0.96
2022-12-10T09:13:57.396Z,0.83
2022-12-10T09:16:36.532Z,0.85
2022-12-10T09:19:05.636Z,0.76
2022-12-10T09:21:33.124Z,0.87
2022-12-10T09:24:01.278Z,0.92
2022-12-10T09:26:28.644Z,0.74
2022-12-10T09:28:56.609Z,0.86
2022-12-10T09:31:24.209Z,0.76
2022-12-10T09:33:53.536Z,0.66
2022-12-10T09:36:22.414Z,0.79
2022-12-10T09:38:53.379Z,0.89
2022-12-10T09:41:45.277Z,0.90
2022-12-10T09:44:24.193Z,0.91
2022-12-10T09:46:58.075Z,0.94
2022-12-10T09:49:38.908Z,0.94
2022-12-10T09:52:16.556Z,0.95
2022-12-10T09:54:55.792Z,0.96
2022-12-10T09:57:32.795Z,0.99
2022-12-10T10:00:19.498Z,1.01
2022-12-10T10:02:51.048Z,0.98
2022-12-10T10:05:26.114Z,1.04
2022-12-10T10:08:02.285Z,1.14
2022-12-10T10:10:34.167Z,1.17
2022-12-10T10:13:10.308Z,1.16
2022-12-10T10:15:44.745Z,1.14
2022-12-10T10:18:32.748Z,1.17
2022-12-10T10:21:02.442Z,1.13
2022-12-10T10:23:29.916Z,1.18
2022-12-10T10:25:57.797Z,1.14
2022-12-10T10:28:24.906Z,1.19
2022-12-10T10:30:55.563Z,1.14
2022-12-10T10:33:22.878Z,1.18
2022-12-10T10:35:55.409Z,1.11
2022-12-10T10:38:27.735Z,1.23
2022-12-10T10:41:01.481Z,1.20
2022-12-10T10:43:42.653Z,1.19
2022-12-10T10:46:36.766Z,1.07
2022-12-10T10:49:33.155Z,1.18
2022-12-10T10:52:15.122Z,1.18
2022-12-10T10:54:46.326Z,1.16
2022-12-10T10:57:34.847Z,1.26
2022-12-10T11:00:23.681Z,1.26
2022-12-10T11:02:53.334Z,1.21
2022-12-10T11:05:36.372Z,1.15
2022-12-10T11:08:15.033Z,1.23
2022-12-10T11:10:56.432Z,1.21
2022-12-10T11:13:30.086Z,1.20
2022-12-10T11:16:12.214Z,1.17
2022-12-10T11:18:43.553Z,1.15
2022-12-10T11:21:13.594Z,1.27
2022-12-10T11:23:43.783Z,1.22
2022-12-10T11:26:38.289Z,1.27
2022-12-10T11:29:33.684Z,1.22
2022-12-10T11:32:00.762Z,1.30
2022-12-10T11:34:58.370Z,1.32
2022-12-10T11:37:34.491Z,1.32
2022-12-10T11:40:15.463Z,1.29
2022-12-10T11:43:21.434Z,1.31
2022-12-10T11:46:00.800Z,1.30
2022-12-10T11:48:41.856Z,1.30
2022-12-10T11:51:46.265Z,1.30
2022-12-10T11:54:42.090Z,1.32
2022-12-10T11:57:34.742Z,1.30
2022-12-10T12:00:14.871Z,1.28
2022-12-10T12:02:59.264Z,1.29
2022-12-10T12:05:48.775Z,1.24
2022-12-10T12:08:40.657Z,1.29
2022-12-10T12:11:40.172Z,1.28
2022-12-10T12:14:28.225Z,1.21
2022-12-10T12:17:20.889Z,1.25
2022-12-10T12:19:53.573Z,1.21
2022-12-10T12:22:32.285Z,1.03
2022-12-10T12:25:12.339Z,1.10
2022-12-10T12:27:50.872Z,1.07
2022-12-10T12:30:24.177Z,1.04
2022-12-10T12:33:16.579Z,1.05
2022-12-10T12:36:13.342Z,1.09
2022-12-10T12:39:09.619Z,1.08
2022-12-10T12:41:48.478Z,1.12
2022-12-10T12:44:44.958Z,1.09
2022-12-10T12:47:30.657Z,1.10
2022-12-10T12:50:00.242Z,1.01
2022-12-10T12:52:46.385Z,0.97
2022-12-10T12:55:40.038Z,1.01
2022-12-10T12:58:14.133Z,1.02
2022-12-10T13:00:47.714Z,1.02
2022-12-10T13:03:33.758Z,0.94
2022-12-10T13:06:23.400Z,1.01
2022-12-10T13:08:59.747Z,0.95
2022-12-10T13:11:37.613Z,1.00
2022-12-10T13:14:11.046Z,0.93
2022-12-10T13:16:38.379Z,0.79
2022-12-10T13:19:20.923Z,0.88
2022-12-10T13:22:02.484Z,0.89
2022-12-10T13:25:00.175Z,0.89
2022-12-10T13:27:35.277Z,0.94
2022-12-10T13:30:05.213Z,0.90
2022-12-10T13:32:34.946Z,0.86
2022-12-10T13:35:11.064Z,0.85
2022-12-10T13:37:51.358Z,0.90
2022-12-10T13:40:31.348Z,0.90
2022-12-10T13:43:56.717Z,0.94
2022-12-10T13:46:35.680Z,0.97
2022-12-10T13:49:05.674Z,0.91
2022-12-10T13:51:49.559Z,0.93
2022-12-10T13:54:49.722Z,0.91
2022-12-10T13:57:27.457Z,0.90
2022-12-10T14:00:30.496Z,0.92
2022-12-10T14:03:03.934Z,0.88
2022-12-10T14:05:48.562Z,0.89
2022-12-10T14:08:40.065Z,0.84
2022-12-10T14:11:21.835Z,0.75
2022-12-10T14:13:54.198Z,0.88
2022-12-10T14:16:25.119Z,0.89
2022-12-10T14:19:00.949Z,0.89
2022-12-10T14:21:34.155Z,0.93
2022-12-10T14:24:01.419Z,0.89
2022-12-10T14:26:32.509Z,1.03
2022-12-10T14:29:27.416Z,1.02
2022-12-10T14:31:58.351Z,0.98
2022-12-10T14:34:30.069Z,0.93
2022-12-10T14:37:03.252Z,0.95
2022-12-10T14:39:34.545Z,0.94
2022-12-10T14:42:11.926Z,0.98
2022-12-10T14:44:41.418Z,0.99
2022-12-10T14:47:20.482Z,0.93
2022-12-10T14:49:51.347Z,0.88
2022-12-10T14:52:25.585Z,0.85
2022-12-10T14:54:54.177Z,0.91
2022-12-10T14:57:32.375Z,0.92
2022-12-10T15:00:19.518Z,0.81
2022-12-10T15:02:51.137Z,0.74
2022-12-10T15:05:23.059Z,0.81
2022-12-10T15:07:58.994Z,0.77
2022-12-10T15:10:41.895Z,0.59
2022-12-10T15:13:21.540Z,0.69
2022-12-10T15:15:54.043Z,0.65
2022-12-10T15:18:28.838Z,0.68
2022-12-10T15:21:22.249Z,0.83
2022-12-10T15:23:52.560Z,0.88
2022-12-10T15:26:21.654Z,0.88
2022-12-10T15:29:28.420Z,0.86
2022-12-10T15:31:59.532Z,0.78
2022-12-10T15:34:36.132Z,0.89
2022-12-10T15:37:06.027Z,0.85
2022-12-10T15:39:54.539Z,0.90
2022-12-10T15:42:45.111Z,0.95
2022-12-10T15:45:24.667Z,0.92
2022-12-10T15:47:52.950Z,0.82
2022-12-10T15:50:20.558Z,0.82
2022-12-10T15:52:49.598Z,0.77
2022-12-10T15:55:19.507Z,0.83
2022-12-10T15:57:51.087Z,0.79
2022-12-10T16:00:25.235Z,0.81
2022-12-10T16:03:00.783Z,0.71
2022-12-10T16:05:36.510Z,0.70
2022-12-10T16:08:18.845Z,0.68
2022-12-10T16:10:49.044Z,0.72
2022-12-10T16:13:21.528Z,0.68
2022-12-10T16:16:15.889Z,0.80
2022-12-10T16:18:43.819Z,0.73
2022-12-10T16:21:11.865Z,0.70
2022-12-10T16:23:40.938Z,0.74
2022-12-10T16:26:20.653Z,0.70
2022-12-10T16:28:49.461Z,0.70
2022-12-10T16:31:22.259Z,0.70
2022-12-10T16:33:53.968Z,0.70
2022-12-10T16:36:22.181Z,0.66
2022-12-10T16:38:50.180Z,0.53
2022-12-10T16:41:23.952Z,0.56
2022-12-10T16:43:54.444Z,0.59
2022-12-10T16:46:22.663Z,0.57
2022-12-10T16:48:51.606Z,0.54
2022-12-10T16:51:24.770Z,0.43
2022-12-10T16:53:52.518Z,0.52
2022-12-10T16:56:20.500Z,0.54
2022-12-10T16:58:49.863Z,0.53
2022-12-10T17:01:38.970Z,0.48
2022-12-10T17:04:06.601Z,0.45
2022-12-10T17:06:34.115Z,0.44
2022-12-10T17:09:01.979Z,0.54
2022-12-10T17:11:51.139Z,0.60
2022-12-10T17:14:32.281Z,0.58
2022-12-10T17:17:06.788Z,0.61
2022-12-10T17:19:36.983Z,0.57
2022-12-10T17:22:05.943Z,0.57
2022-12-10T17:24:33.520Z,0.63
2022-12-10T17:27:20.929Z,0.60
2022-12-10T17:29:54.840Z,0.62
2022-12-10T17:32:23.678Z,0.60
2022-12-10T17:34:50.977Z,0.62
2022-12-10T17:37:20.592Z,0.57
2022-12-10T17:39:47.907Z,0.58
2022-12-10T17:42:16.368Z,0.59
2022-12-10T17:44:45.721Z,0.65
2022-12-10T17:47:24.478Z,0.62
2022-12-10T17:49:53.605Z,0.60
2022-12-10T17:52:28.774Z,0.57
2022-12-10T17:54:57.470Z,0.59
2022-12-10T17:57:27.086Z,0.58
2022-12-10T17:59:55.577Z,0.58
2022-12-10T18:02:24.502Z,0.59
2022-12-10T18:04:51.948Z,0.60
2022-12-10T18:07:20.085Z,0.52
2022-12-10T18:09:48.543Z,0.52
2022-12-10T18:12:16.045Z,0.57
2022-12-10T18:14:44.006Z,0.56
2022-12-10T18:17:19.535Z,0.49
2022-12-10T18:19:53.305Z,0.53
2022-12-10T18:22:21.247Z,0.46
2022-12-10T18:24:50.134Z,0.42
2022-12-10T18:27:19.515Z,0.39
2022-12-10T18:29:48.019Z,0.43
2022-12-10T18:32:22.808Z,0.48
2022-12-10T18:34:50.539Z,0.40
2022-12-10T18:37:18.289Z,0.49
2022-12-10T18:39:47.867Z,0.36
2022-12-10T18:42:15.155Z,0.42
2022-12-10T18:44:43.020Z,0.44
2022-12-10T18:47:13.457Z,0.52
2022-12-10T18:49:41.909Z,0.48
2022-12-10T18:52:12.809Z,0.52
2022-12-10T18:54:41.761Z,0.51
2022-12-10T19:00:03.787Z,0.50
2022-12-10T19:02:34.057Z,0.51
2022-12-10T19:05:01.809Z,0.44
2022-12-10T19:07:29.868Z,0.48
2022-12-10T19:09:58.327Z,0.52
2022-12-10T19:12:26.018Z,0.54
2022-12-10T19:14:54.425Z,0.48
2022-12-10T19:17:23.944Z,0.49
2022-12-10T19:19:51.933Z,0.50
2022-12-10T19:22:20.384Z,0.37
2022-12-10T19:24:50.026Z,0.45
2022-12-10T19:27:18.106Z,0.49
2022-12-10T19:29:47.084Z,0.51
2022-12-10T19:32:15.269Z,0.39
2022-12-10T19:34:43.283Z,0.44
2022-12-10T19:37:12.611Z,0.51
2022-12-10T19:39:41.185Z,0.53
2022-12-10T19:42:09.420Z,0.52
2022-12-10T19:44:39.560Z,0.51
2022-12-10T19:47:20.220Z,0.51
2022-12-10T19:49:49.710Z,0.56
2022-12-10T19:52:20.326Z,0.55
2022-12-10T19:54:48.184Z,0.55
2022-12-10T19:57:16.974Z,0.53
2022-12-10T19:59:46.982Z,0.50
2022-12-10T20:02:16.273Z,0.52
2022-12-10T20:04:44.956Z,0.53
2022-12-10T20:07:13.915Z,0.51
2022-12-10T20:09:42.085Z,0.46
2022-12-10T20:12:11.044Z,0.48
2022-12-10T20:14:40.982Z,0.43
2022-12-10T20:17:15.165Z,0.42
2022-12-10T20:19:46.484Z,0.45
2022-12-10T20:22:15.836Z,0.39
2022-12-10T20:24:43.893Z,0.45
2022-12-10T20:27:18.399Z,0.38
2022-12-10T20:29:47.816Z,0.42
2022-12-10T20:32:16.486Z,0.39
2022-12-10T20:34:44.786Z,0.34
2022-12-10T20:37:14.618Z,0.38
2022-12-10T20:39:49.556Z,0.40
2022-12-10T20:42:27.600Z,0.36
2022-12-10T20:44:56.001Z,0.29
2022-12-10T20:47:24.035Z,0.28
2022-12-10T20:49:54.645Z,0.28
2022-12-10T20:52:25.442Z,0.33
2022-12-10T20:54:54.958Z,0.26
2022-12-10T20:57:24.615Z,0.28
2022-12-10T20:59:52.360Z,0.27
2022-12-10T21:02:20.579Z,0.32
2022-12-10T21:04:48.649Z,0.32
2022-12-10T21:07:16.656Z,0.33
2022-12-10T21:09:45.827Z,0.32
2022-12-10T21:12:14.783Z,0.35
2022-12-10T21:14:52.277Z,0.26
2022-12-10T21:17:21.321Z,0.14
2022-12-10T21:19:49.367Z,0.31
2022-12-10T21:22:24.163Z,0.34
2022-12-10T21:24:52.756Z,0.32
2022-12-10T21:27:26.378Z,0.32
2022-12-10T21:29:54.513Z,0.35
2022-12-10T21:32:22.426Z,0.36
2022-12-10T21:34:50.963Z,0.31
2022-12-10T21:37:18.464Z,0.23
2022-12-10T21:39:46.479Z,0.34
2022-12-10T21:42:33.742Z,0.36
2022-12-10T21:45:01.824Z,0.35
2022-12-10T21:47:29.760Z,0.31
2022-12-10T21:49:57.120Z,0.28
2022-12-10T21:52:24.698Z,0.35
2022-12-10T21:54:54.452Z,0.27
2022-12-10T21:57:22.275Z,0.29
2022-12-10T21:59:49.950Z,0.24
2022-12-10T22:02:17.841Z,0.19
2022-12-10T22:04:45.293Z,0.28
2022-12-10T22:07:14.496Z,0.32
2022-12-10T22:09:41.958Z,0.26
2022-12-10T22:12:09.427Z,0.30
2022-12-10T22:14:37.068Z,0.26
2022-12-10T22:17:04.443Z,0.27
2022-12-10T22:19:32.722Z,0.30
2022-12-10T22:22:00.188Z,0.30
2022-12-10T22:24:27.843Z,0.28
2022-12-10T22:26:56.351Z,0.28
2022-12-10T22:29:26.457Z,0.29
2022-12-10T22:31:54.909Z,0.34
2022-12-10T22:34:23.246Z,0.30
2022-12-10T22:36:50.908Z,0.30
2022-12-10T22:39:25.441Z,0.29
2022-12-10T22:41:52.738Z,0.27
2022-12-10T22:44:20.293Z,0.26
2022-12-10T22:46:48.806Z,0.30
2022-12-10T22:49:16.748Z,0.30
2022-12-10T22:51:45.110Z,0.17
2022-12-10T22:54:12.539Z,0.30
2022-12-10T22:56:40.047Z,0.25
2022-12-10T22:59:09.986Z,0.28
2022-12-10T23:01:37.436Z,0.25
2022-12-10T23:04:04.770Z,0.28
2022-12-10T23:06:31.824Z,0.27
2022-12-10T23:08:59.229Z,0.28
2022-12-10T23:11:26.578Z,0.24
2022-12-10T23:13:55.770Z,0.27
2022-12-10T23:16:25.403Z,0.29
2022-12-10T23:18:52.782Z,0.28
2022-12-10T23:21:24.412Z,0.20
2022-12-10T23:23:52.624Z,0.28
2022-12-10T23:26:22.422Z,0.27
2022-12-10T23:28:50.535Z,0.22
2022-12-10T23:31:18.985Z,0.23
2022-12-10T23:33:46.384Z,0.22
2022-12-10T23:36:15.644Z,0.26
2022-12-10T23:38:43.099Z,0.23
2022-12-10T23:41:12.284Z,0.22
2022-12-10T23:43:39.698Z,0.22
2022-12-10T23:46:08.897Z,0.24
2022-12-10T23:48:36.040Z,0.14
2022-12-10T23:51:03.964Z,0.23
2022-12-10T23:53:32.133Z,0.24
2022-12-10T23:56:16.849Z,0.28
2022-12-10T23:58:45.086Z,0.28
